createdAt,value
2024-03-17T00:00:05.818Z,77.50
2024-03-17T00:01:05.914Z,77.43
2024-03-17T00:02:05.990Z,77.38
2024-03-17T00:03:06.091Z,77.35
2024-03-17T00:04:06.177Z,77.30
2024-03-17T00:05:06.271Z,77.24
2024-03-17T00:06:06.349Z,77.17
2024-03-17T00:07:06.437Z,77.10
2024-03-17T00:08:06.515Z,77.06
2024-03-17T00:09:06.601Z,77.04
2024-03-17T00:10:06.712Z,77.00
2024-03-17T00:11:06.767Z,76.95
2024-03-17T00:12:06.834Z,76.90
2024-03-17T00:13:06.933Z,76.86
2024-03-17T00:14:07.013Z,76.85
2024-03-17T00:15:07.121Z,76.82
2024-03-17T00:16:07.199Z,76.81
2024-03-17T00:17:07.356Z,76.78
2024-03-17T00:18:07.381Z,76.73
2024-03-17T00:19:07.477Z,76.70
2024-03-17T00:20:07.615Z,76.70
2024-03-17T00:21:07.658Z,76.69
2024-03-17T00:22:07.725Z,76.65
2024-03-17T00:23:07.811Z,76.62
2024-03-17T00:24:07.893Z,76.60
2024-03-17T00:25:08.001Z,76.63
2024-03-17T00:26:08.037Z,76.61
2024-03-17T00:27:08.174Z,76.58
2024-03-17T00:28:08.220Z,76.53
2024-03-17T00:29:08.285Z,76.57
2024-03-17T00:30:08.396Z,76.57
2024-03-17T00:31:08.532Z,76.60
2024-03-17T00:32:08.549Z,76.59
2024-03-17T00:33:08.635Z,76.59
2024-03-17T00:34:08.718Z,76.61
2024-03-17T00:35:08.826Z,76.65
2024-03-17T00:36:08.892Z,76.70
2024-03-17T00:37:08.973Z,76.78
2024-03-17T00:38:09.038Z,76.79
2024-03-17T00:39:09.116Z,76.79
2024-03-17T00:40:09.210Z,76.78
2024-03-17T00:41:09.322Z,76.83
2024-03-17T00:42:09.407Z,76.89
2024-03-17T00:43:09.476Z,76.96
2024-03-17T00:44:09.566Z,77.02
2024-03-17T00:45:09.678Z,77.04
2024-03-17T00:46:09.772Z,77.06
2024-03-17T00:47:09.809Z,77.08
2024-03-17T00:48:09.894Z,77.11
2024-03-17T00:49:09.993Z,77.13
2024-03-17T00:50:10.153Z,77.20
2024-03-17T00:51:10.167Z,77.20
2024-03-17T00:52:10.245Z,77.20
2024-03-17T00:53:10.335Z,77.20
2024-03-17T00:54:10.405Z,77.18
2024-03-17T00:55:10.508Z,77.18
2024-03-17T00:56:10.548Z,77.22
2024-03-17T00:57:10.652Z,77.23
2024-03-17T00:58:10.733Z,77.25
2024-03-17T00:59:10.822Z,77.31
2024-03-17T01:00:10.913Z,77.35
2024-03-17T01:01:11.024Z,77.39
2024-03-17T01:02:11.084Z,77.43
2024-03-17T01:03:11.167Z,77.46
2024-03-17T01:04:11.256Z,77.47
2024-03-17T01:05:11.359Z,77.51
2024-03-17T01:06:11.401Z,77.52
2024-03-17T01:07:11.488Z,77.55
2024-03-17T01:08:11.577Z,77.57
2024-03-17T01:09:11.673Z,77.56
2024-03-17T01:10:11.772Z,77.56
2024-03-17T01:11:11.856Z,77.58
2024-03-17T01:12:11.946Z,77.58
2024-03-17T01:13:12.032Z,77.58
2024-03-17T01:14:12.101Z,77.60
2024-03-17T01:15:12.238Z,77.61
2024-03-17T01:16:12.262Z,77.63
2024-03-17T01:17:12.333Z,77.66
2024-03-17T01:18:12.423Z,77.67
2024-03-17T01:19:12.520Z,77.67
2024-03-17T01:20:12.606Z,77.69
2024-03-17T01:21:12.701Z,77.71
2024-03-17T01:22:12.764Z,77.76
2024-03-17T01:23:12.825Z,77.79
2024-03-17T01:24:12.908Z,77.79
2024-03-17T01:25:13.007Z,77.79
2024-03-17T01:26:15.836Z,77.81
2024-03-17T01:27:13.190Z,77.86
2024-03-17T01:28:13.250Z,77.86
2024-03-17T01:29:13.375Z,77.87
2024-03-17T01:30:13.417Z,77.87
2024-03-17T01:31:13.493Z,77.86
2024-03-17T01:32:13.605Z,77.81
2024-03-17T01:33:13.653Z,77.78
2024-03-17T01:34:13.728Z,77.75
2024-03-17T01:35:13.824Z,77.72
2024-03-17T01:36:13.860Z,77.70
2024-03-17T01:37:13.955Z,77.69
2024-03-17T01:38:14.000Z,77.67
2024-03-17T01:39:14.100Z,77.66
2024-03-17T01:40:14.179Z,77.65
2024-03-17T01:41:14.264Z,77.67
2024-03-17T01:42:14.388Z,77.68
2024-03-17T01:43:14.460Z,77.70
2024-03-17T01:44:14.500Z,77.71
2024-03-17T01:45:14.601Z,77.74
2024-03-17T01:46:14.678Z,77.75
2024-03-17T01:47:14.746Z,77.79
2024-03-17T01:48:14.836Z,77.81
2024-03-17T01:49:16.833Z,77.86
2024-03-17T01:50:14.985Z,77.91
2024-03-17T01:51:15.073Z,77.94
2024-03-17T01:52:15.203Z,77.98
2024-03-17T01:53:15.238Z,78.03
2024-03-17T01:54:15.297Z,78.04
2024-03-17T01:55:15.397Z,78.06
2024-03-17T01:56:15.438Z,78.06
2024-03-17T01:57:15.535Z,78.10
2024-03-17T01:58:15.616Z,78.13
2024-03-17T01:59:15.704Z,78.16
2024-03-17T02:00:15.800Z,78.17
2024-03-17T02:01:15.902Z,78.19
2024-03-17T02:02:15.937Z,78.15
2024-03-17T02:03:16.022Z,78.16
2024-03-17T02:04:16.098Z,78.17
2024-03-17T02:05:16.189Z,78.21
2024-03-17T02:06:16.278Z,78.20
2024-03-17T02:07:16.376Z,78.21
2024-03-17T02:08:16.464Z,78.26
2024-03-17T02:09:16.542Z,78.27
2024-03-17T02:10:16.660Z,78.30
2024-03-17T02:11:16.699Z,78.35
2024-03-17T02:12:16.778Z,78.38
2024-03-17T02:13:16.907Z,78.40
2024-03-17T02:14:16.945Z,78.39
2024-03-17T02:15:17.044Z,78.38
2024-03-17T02:16:17.119Z,78.37
2024-03-17T02:17:17.207Z,78.37
2024-03-17T02:18:17.303Z,78.41
2024-03-17T02:19:17.358Z,78.43
2024-03-17T02:20:17.470Z,78.40
2024-03-17T02:21:17.532Z,78.41
2024-03-17T02:22:17.617Z,78.41
2024-03-17T02:23:17.702Z,78.43
2024-03-17T02:24:17.788Z,78.45
2024-03-17T02:25:17.882Z,78.47
2024-03-17T02:26:17.992Z,78.45
2024-03-17T02:27:18.060Z,78.47
2024-03-17T02:28:18.170Z,78.48
2024-03-17T02:29:18.222Z,78.54
2024-03-17T02:30:18.313Z,78.58
2024-03-17T02:31:18.406Z,78.62
2024-03-17T02:32:18.504Z,78.60
2024-03-17T02:33:18.597Z,78.61
2024-03-17T02:34:18.645Z,78.64
2024-03-17T02:35:18.734Z,78.68
2024-03-17T02:36:18.788Z,78.69
2024-03-17T02:37:18.886Z,78.75
2024-03-17T02:38:18.959Z,78.83
2024-03-17T02:39:19.054Z,78.85
2024-03-17T02:40:19.139Z,78.89
2024-03-17T02:41:19.221Z,78.93
2024-03-17T02:42:19.312Z,78.99
2024-03-17T02:43:19.388Z,79.08
2024-03-17T02:44:19.473Z,79.13
2024-03-17T02:45:19.570Z,79.15
2024-03-17T02:46:19.650Z,79.14
2024-03-17T02:47:21.867Z,79.18
2024-03-17T02:48:19.809Z,79.27
2024-03-17T02:49:19.901Z,79.28
2024-03-17T02:50:19.984Z,79.28
2024-03-17T02:51:20.064Z,79.29
2024-03-17T02:52:20.146Z,79.27
2024-03-17T02:53:20.239Z,79.27
2024-03-17T02:54:32.446Z,79.30
2024-03-17T02:55:20.403Z,79.35
2024-03-17T02:56:20.495Z,79.38
2024-03-17T02:57:20.542Z,79.41
2024-03-17T02:58:20.639Z,79.50
2024-03-17T02:59:20.719Z,79.52
2024-03-17T03:00:20.809Z,79.57
2024-03-17T03:01:20.917Z,79.58
2024-03-17T03:02:20.963Z,79.56
2024-03-17T03:03:21.048Z,79.58
2024-03-17T03:04:21.137Z,79.59
2024-03-17T03:05:21.227Z,79.55
2024-03-17T03:06:21.358Z,79.55
2024-03-17T03:07:21.367Z,79.51
2024-03-17T03:08:21.427Z,79.51
2024-03-17T03:09:21.566Z,79.54
2024-03-17T03:10:21.614Z,79.50
2024-03-17T03:11:21.705Z,79.48
2024-03-17T03:12:21.793Z,79.48
2024-03-17T03:13:21.875Z,79.49
2024-03-17T03:14:21.951Z,79.51
2024-03-17T03:15:22.063Z,79.48
2024-03-17T03:16:22.114Z,79.44
2024-03-17T03:17:22.196Z,79.44
2024-03-17T03:18:22.277Z,79.45
2024-03-17T03:19:22.381Z,79.44
2024-03-17T03:20:22.503Z,79.44
2024-03-17T03:21:22.515Z,79.44
2024-03-17T03:22:22.604Z,79.39
2024-03-17T03:23:22.691Z,79.40
2024-03-17T03:24:22.787Z,79.42
2024-03-17T03:25:22.853Z,79.40
2024-03-17T03:26:22.990Z,79.37
2024-03-17T03:27:23.033Z,79.38
2024-03-17T03:28:23.113Z,79.38
2024-03-17T03:29:23.213Z,79.37
2024-03-17T03:30:23.294Z,79.37
2024-03-17T03:31:23.402Z,79.39
2024-03-17T03:32:23.458Z,79.40
2024-03-17T03:33:23.542Z,79.42
2024-03-17T03:34:23.620Z,79.43
2024-03-17T03:35:23.722Z,79.43
2024-03-17T03:36:23.778Z,79.46
2024-03-17T03:37:23.858Z,79.51
2024-03-17T03:38:23.948Z,79.56
2024-03-17T03:39:24.115Z,79.62
2024-03-17T03:40:24.121Z,79.68
2024-03-17T03:41:24.225Z,79.70
2024-03-17T03:42:24.313Z,79.72
2024-03-17T03:43:24.357Z,79.77
2024-03-17T03:44:24.440Z,79.79
2024-03-17T03:45:24.536Z,79.84
2024-03-17T03:46:24.612Z,79.94
2024-03-17T03:47:24.700Z,79.99
2024-03-17T03:48:24.762Z,80.08
2024-03-17T03:49:24.846Z,80.09
2024-03-17T03:50:24.936Z,80.11
2024-03-17T03:51:25.006Z,80.14
2024-03-17T03:52:25.107Z,80.21
2024-03-17T03:53:25.181Z,80.27
2024-03-17T03:54:34.277Z,80.33
2024-03-17T03:55:25.401Z,80.42
2024-03-17T03:56:25.443Z,80.42
2024-03-17T03:57:25.560Z,80.40
2024-03-17T03:58:25.674Z,80.38
2024-03-17T03:59:25.682Z,80.36
2024-03-17T04:00:25.776Z,80.36
2024-03-17T04:01:25.849Z,80.32
2024-03-17T04:02:25.942Z,80.34
2024-03-17T04:03:26.021Z,80.26
2024-03-17T04:04:26.141Z,80.26
2024-03-17T04:05:26.185Z,80.26
2024-03-17T04:06:26.271Z,80.20
2024-03-17T04:07:26.352Z,80.17
2024-03-17T04:08:26.454Z,80.15
2024-03-17T04:09:26.523Z,80.15
2024-03-17T04:10:26.611Z,80.15
2024-03-17T04:11:26.698Z,80.15
2024-03-17T04:12:26.784Z,80.12
2024-03-17T04:13:26.864Z,80.15
2024-03-17T04:14:26.952Z,80.22
2024-03-17T04:15:27.028Z,80.25
2024-03-17T04:16:27.127Z,80.28
2024-03-17T04:17:27.193Z,80.32
2024-03-17T04:18:27.283Z,80.35
2024-03-17T04:19:27.361Z,80.38
2024-03-17T04:20:27.468Z,80.39
2024-03-17T04:21:27.545Z,80.38
2024-03-17T04:22:27.629Z,80.36
2024-03-17T04:23:27.713Z,80.34
2024-03-17T04:24:27.809Z,80.29
2024-03-17T04:25:27.897Z,80.22
2024-03-17T04:26:27.989Z,80.19
2024-03-17T04:27:28.083Z,80.14
2024-03-17T04:28:28.167Z,80.10
2024-03-17T04:29:28.252Z,80.08
2024-03-17T04:30:28.338Z,80.05
2024-03-17T04:31:28.440Z,80.00
2024-03-17T04:32:28.522Z,79.95
2024-03-17T04:33:28.594Z,79.89
2024-03-17T04:34:28.688Z,79.85
2024-03-17T04:35:28.795Z,79.86
2024-03-17T04:36:28.886Z,79.83
2024-03-17T04:37:28.961Z,79.81
2024-03-17T04:38:29.095Z,79.75
2024-03-17T04:39:29.138Z,79.71
2024-03-17T04:40:29.234Z,79.70
2024-03-17T04:41:29.309Z,79.68
2024-03-17T04:42:29.408Z,79.66
2024-03-17T04:43:29.485Z,79.64
2024-03-17T04:44:29.600Z,79.62
2024-03-17T04:45:29.647Z,79.59
2024-03-17T04:46:29.743Z,79.56
2024-03-17T04:47:29.828Z,79.54
2024-03-17T04:48:29.923Z,79.51
2024-03-17T04:49:30.005Z,79.50
2024-03-17T04:50:30.099Z,79.49
2024-03-17T04:51:30.155Z,79.47
2024-03-17T04:52:30.242Z,79.44
2024-03-17T04:53:30.334Z,79.41
2024-03-17T04:54:33.006Z,79.39
2024-03-17T04:55:30.516Z,79.36
2024-03-17T04:56:30.611Z,79.33
2024-03-17T04:57:30.649Z,79.28
2024-03-17T04:58:30.733Z,79.24
2024-03-17T04:59:30.826Z,79.21
2024-03-17T05:00:30.932Z,79.18
2024-03-17T05:01:31.010Z,79.12
2024-03-17T05:02:31.100Z,79.07
2024-03-17T05:03:31.197Z,79.01
2024-03-17T05:04:31.281Z,78.98
2024-03-17T05:05:31.382Z,78.96
2024-03-17T05:06:31.457Z,78.94
2024-03-17T05:07:31.550Z,78.89
2024-03-17T05:08:31.649Z,78.85
2024-03-17T05:09:31.729Z,78.83
2024-03-17T05:10:31.828Z,78.80
2024-03-17T05:11:31.884Z,78.77
2024-03-17T05:12:31.976Z,78.74
2024-03-17T05:13:32.031Z,78.72
2024-03-17T05:14:32.104Z,78.70
2024-03-17T05:15:32.194Z,78.67
2024-03-17T05:16:32.290Z,78.65
2024-03-17T05:17:32.378Z,78.63
2024-03-17T05:18:32.479Z,78.61
2024-03-17T05:19:32.567Z,78.59
2024-03-17T05:20:32.673Z,78.56
2024-03-17T05:21:32.723Z,78.55
2024-03-17T05:22:32.827Z,78.53
2024-03-17T05:23:32.870Z,78.53
2024-03-17T05:24:32.986Z,78.53
2024-03-17T05:25:33.049Z,78.51
2024-03-17T05:26:33.145Z,78.51
2024-03-17T05:27:33.252Z,78.51
2024-03-17T05:28:33.313Z,78.50
2024-03-17T05:29:33.411Z,78.50
2024-03-17T05:30:33.493Z,78.52
2024-03-17T05:31:33.550Z,78.51
2024-03-17T05:32:33.631Z,78.53
2024-03-17T05:33:33.721Z,78.52
2024-03-17T05:34:33.817Z,78.53
2024-03-17T05:35:33.880Z,78.52
2024-03-17T05:36:33.940Z,78.49
2024-03-17T05:37:34.020Z,78.49
2024-03-17T05:38:34.117Z,78.47
2024-03-17T05:39:34.193Z,78.45
2024-03-17T05:40:34.266Z,78.42
2024-03-17T05:41:34.361Z,78.37
2024-03-17T05:42:34.443Z,78.32
2024-03-17T05:43:34.537Z,78.29
2024-03-17T05:44:34.642Z,78.26
2024-03-17T05:45:34.692Z,78.24
2024-03-17T05:46:34.786Z,78.18
2024-03-17T05:47:34.890Z,78.15
2024-03-17T05:48:34.944Z,78.13
2024-03-17T05:49:35.028Z,78.10
2024-03-17T05:50:35.135Z,78.06
2024-03-17T05:51:35.186Z,78.04
2024-03-17T05:52:35.297Z,78.03
2024-03-17T05:53:35.354Z,77.99
2024-03-17T05:54:35.441Z,77.96
2024-03-17T05:55:35.533Z,77.96
2024-03-17T05:56:35.652Z,77.94
2024-03-17T05:57:35.711Z,77.91
2024-03-17T05:58:35.790Z,77.91
2024-03-17T05:59:35.869Z,77.89
2024-03-17T06:00:35.967Z,77.89
2024-03-17T06:01:36.041Z,77.88
2024-03-17T06:02:36.133Z,77.87
2024-03-17T06:03:36.234Z,77.87
2024-03-17T06:04:36.339Z,77.86
2024-03-17T06:05:36.413Z,77.83
2024-03-17T06:06:36.537Z,77.86
2024-03-17T06:07:36.582Z,77.86
2024-03-17T06:08:36.667Z,77.82
2024-03-17T06:09:36.755Z,77.82
2024-03-17T06:10:36.901Z,77.74
2024-03-17T06:11:36.937Z,77.68
2024-03-17T06:12:37.042Z,77.61
2024-03-17T06:13:37.109Z,77.55
2024-03-17T06:14:37.211Z,77.50
2024-03-17T06:15:37.400Z,77.44
2024-03-17T06:16:37.363Z,77.36
2024-03-17T06:17:37.493Z,77.29
2024-03-17T06:18:37.548Z,77.26
2024-03-17T06:19:37.632Z,77.16
2024-03-17T06:20:37.765Z,77.05
2024-03-17T06:21:37.801Z,77.00
2024-03-17T06:22:37.876Z,76.94
2024-03-17T06:23:37.964Z,76.75
2024-03-17T06:24:38.069Z,76.52
2024-03-17T06:25:38.112Z,76.38
2024-03-17T06:26:38.297Z,76.19
2024-03-17T06:27:38.289Z,76.08
2024-03-17T06:28:38.395Z,75.97
2024-03-17T06:29:38.442Z,75.90
2024-03-17T06:30:38.659Z,75.77
2024-03-17T06:31:38.710Z,75.66
2024-03-17T06:32:38.700Z,75.53
2024-03-17T06:33:38.744Z,75.38
2024-03-17T06:34:38.823Z,75.19
2024-03-17T06:35:38.909Z,75.14
2024-03-17T06:36:38.998Z,75.07
2024-03-17T06:37:39.082Z,74.88
2024-03-17T06:38:39.164Z,74.45
2024-03-17T06:39:42.854Z,74.08
2024-03-17T06:40:39.335Z,73.62
2024-03-17T06:41:39.412Z,73.20
2024-03-17T06:42:39.493Z,72.82
2024-03-17T06:43:39.544Z,72.39
2024-03-17T06:44:39.643Z,71.85
2024-03-17T06:45:39.702Z,71.15
2024-03-17T06:46:39.820Z,70.90
2024-03-17T06:47:39.844Z,70.53
2024-03-17T06:48:39.919Z,70.10
2024-03-17T06:49:40.016Z,69.84
2024-03-17T06:50:40.095Z,69.70
2024-03-17T06:51:40.181Z,69.40
2024-03-17T06:52:40.265Z,68.82
2024-03-17T06:53:40.343Z,68.20
2024-03-17T06:54:40.442Z,67.44
2024-03-17T06:55:40.529Z,67.03
2024-03-17T06:56:40.661Z,66.38
2024-03-17T06:57:40.688Z,66.13
2024-03-17T06:58:40.788Z,65.78
2024-03-17T06:59:40.877Z,65.55
2024-03-17T07:00:40.980Z,65.36
2024-03-17T07:01:41.054Z,65.29
2024-03-17T07:02:41.146Z,65.15
2024-03-17T07:03:41.232Z,64.89
2024-03-17T07:04:41.335Z,64.55
2024-03-17T07:05:41.395Z,64.62
2024-03-17T07:06:41.491Z,64.51
2024-03-17T07:07:41.547Z,64.36
2024-03-17T07:08:41.641Z,64.36
2024-03-17T07:09:41.712Z,63.53
2024-03-17T07:10:41.816Z,63.23
2024-03-17T07:11:41.853Z,63.17
2024-03-17T07:12:41.955Z,63.08
2024-03-17T07:13:42.006Z,62.89
2024-03-17T07:14:42.121Z,62.92
2024-03-17T07:15:42.221Z,62.83
2024-03-17T07:16:42.254Z,62.02
2024-03-17T07:17:42.305Z,62.06
2024-03-17T07:18:42.404Z,62.23
2024-03-17T07:19:42.451Z,62.15
2024-03-17T07:20:42.585Z,62.11
2024-03-17T07:21:42.618Z,61.94
2024-03-17T07:22:42.717Z,61.54
2024-03-17T07:23:42.841Z,61.33
2024-03-17T07:24:42.887Z,61.36
2024-03-17T07:25:44.320Z,60.95
2024-03-17T07:26:43.081Z,60.89
2024-03-17T07:27:43.151Z,60.45
2024-03-17T07:28:43.304Z,59.13
2024-03-17T07:29:43.328Z,58.55
2024-03-17T07:30:43.421Z,58.32
2024-03-17T07:31:43.455Z,57.45
2024-03-17T07:32:43.537Z,57.06
2024-03-17T07:33:43.624Z,56.70
2024-03-17T07:34:43.720Z,55.13
2024-03-17T07:35:43.789Z,53.54
2024-03-17T07:36:43.875Z,52.85
2024-03-17T07:37:43.954Z,51.65
2024-03-17T07:38:44.058Z,51.41
2024-03-17T07:39:44.127Z,50.10
2024-03-17T07:40:44.210Z,49.92
2024-03-17T07:41:44.286Z,50.07
2024-03-17T07:42:44.469Z,49.30
2024-03-17T07:43:44.474Z,48.79
2024-03-17T07:44:44.522Z,47.35
2024-03-17T07:45:44.664Z,46.85
2024-03-17T07:46:44.714Z,46.74
2024-03-17T07:47:44.799Z,46.16
2024-03-17T07:48:44.884Z,46.44
2024-03-17T07:49:44.963Z,46.71
2024-03-17T07:50:45.088Z,46.23
2024-03-17T07:51:45.142Z,46.38
2024-03-17T07:52:45.238Z,46.36
2024-03-17T07:53:45.322Z,46.19
2024-03-17T07:54:45.414Z,46.15
2024-03-17T07:55:45.528Z,46.06
2024-03-17T07:56:45.602Z,45.93
2024-03-17T07:57:45.705Z,45.83
2024-03-17T07:58:45.730Z,45.68
2024-03-17T07:59:45.820Z,45.87
2024-03-17T08:00:45.926Z,45.74
2024-03-17T08:01:46.024Z,45.77
2024-03-17T08:02:46.101Z,45.60
2024-03-17T08:03:46.203Z,45.31
2024-03-17T08:04:46.247Z,44.85
2024-03-17T08:05:46.341Z,44.51
2024-03-17T08:06:46.413Z,44.21
2024-03-17T08:07:49.403Z,44.17
2024-03-17T08:08:46.619Z,43.97
2024-03-17T08:09:46.726Z,44.00
2024-03-17T08:10:46.807Z,44.00
2024-03-17T08:11:46.895Z,43.86
2024-03-17T08:12:47.007Z,43.81
2024-03-17T08:13:47.083Z,44.05
2024-03-17T08:14:47.181Z,43.79
2024-03-17T08:15:47.291Z,43.54
2024-03-17T08:16:47.359Z,43.39
2024-03-17T08:17:47.431Z,42.98
2024-03-17T08:18:47.524Z,43.28
2024-03-17T08:19:47.617Z,43.41
2024-03-17T08:20:47.708Z,43.29
2024-03-17T08:21:47.767Z,42.88
2024-03-17T08:22:47.852Z,42.83
2024-03-17T08:23:47.947Z,43.02
2024-03-17T08:24:48.041Z,43.04
2024-03-17T08:25:48.136Z,43.13
2024-03-17T08:26:48.194Z,43.30
2024-03-17T08:27:48.297Z,43.42
2024-03-17T08:28:48.369Z,43.82
2024-03-17T08:29:48.461Z,44.25
2024-03-17T08:30:48.558Z,44.49
2024-03-17T08:31:48.633Z,44.44
2024-03-17T08:32:48.722Z,44.46
2024-03-17T08:33:48.824Z,44.65
2024-03-17T08:34:48.886Z,45.15
2024-03-17T08:35:48.985Z,45.57
2024-03-17T08:36:49.078Z,45.87
2024-03-17T08:37:49.149Z,46.12
2024-03-17T08:38:49.229Z,46.40
2024-03-17T08:39:49.317Z,46.31
2024-03-17T08:40:49.404Z,46.38
2024-03-17T08:41:49.499Z,46.20
2024-03-17T08:42:49.586Z,46.12
2024-03-17T08:43:49.651Z,46.17
2024-03-17T08:44:49.733Z,46.21
2024-03-17T08:45:52.974Z,46.24
2024-03-17T08:46:49.913Z,46.31
2024-03-17T08:47:50.021Z,46.35
2024-03-17T08:48:50.094Z,46.25
2024-03-17T08:49:50.149Z,46.30
2024-03-17T08:50:50.239Z,46.17
2024-03-17T08:51:50.329Z,46.37
2024-03-17T08:52:50.425Z,46.33
2024-03-17T08:53:50.511Z,46.42
2024-03-17T08:54:50.605Z,46.63
2024-03-17T08:55:50.693Z,46.65
2024-03-17T08:56:50.773Z,46.48
2024-03-17T08:57:50.856Z,46.04
2024-03-17T08:58:50.935Z,45.78
2024-03-17T08:59:51.024Z,45.78
2024-03-17T09:00:51.110Z,45.52
2024-03-17T09:01:51.210Z,45.79
2024-03-17T09:02:51.262Z,46.12
2024-03-17T09:03:51.357Z,46.36
2024-03-17T09:04:51.437Z,46.56
2024-03-17T09:05:51.575Z,46.68
2024-03-17T09:06:51.606Z,46.60
2024-03-17T09:07:51.727Z,46.76
2024-03-17T09:08:51.804Z,46.47
2024-03-17T09:09:51.854Z,46.24
2024-03-17T09:10:51.964Z,46.25
2024-03-17T09:11:52.011Z,46.02
2024-03-17T09:12:52.103Z,45.63
2024-03-17T09:13:52.196Z,45.60
2024-03-17T09:14:52.232Z,45.37
2024-03-17T09:15:52.321Z,44.78
2024-03-17T09:16:52.410Z,44.62
2024-03-17T09:17:52.510Z,44.30
2024-03-17T09:18:52.590Z,43.85
2024-03-17T09:19:52.681Z,43.71
2024-03-17T09:20:52.772Z,42.94
2024-03-17T09:21:52.875Z,42.27
2024-03-17T09:22:52.917Z,41.71
2024-03-17T09:23:53.001Z,41.13
2024-03-17T09:24:53.071Z,40.31
2024-03-17T09:25:53.186Z,39.87
2024-03-17T09:26:53.230Z,38.90
2024-03-17T09:27:53.310Z,37.04
2024-03-17T09:28:53.398Z,36.19
2024-03-17T09:29:53.523Z,35.20
2024-03-17T09:30:53.557Z,34.41
2024-03-17T09:31:53.639Z,34.25
2024-03-17T09:32:53.727Z,34.09
2024-03-17T09:33:53.822Z,34.32
2024-03-17T09:34:53.907Z,34.54
2024-03-17T09:35:54.002Z,34.43
2024-03-17T09:36:54.121Z,33.80
2024-03-17T09:37:54.182Z,33.46
2024-03-17T09:38:54.231Z,33.12
2024-03-17T09:39:54.323Z,32.91
2024-03-17T09:40:54.410Z,32.31
2024-03-17T09:41:54.529Z,32.13
2024-03-17T09:42:54.585Z,32.01
2024-03-17T09:43:54.688Z,31.57
2024-03-17T09:44:54.767Z,31.72
2024-03-17T09:45:54.869Z,31.88
2024-03-17T09:46:54.946Z,32.03
2024-03-17T09:47:55.033Z,32.09
2024-03-17T09:48:58.069Z,31.46
2024-03-17T09:49:55.200Z,30.92
2024-03-17T09:50:55.255Z,30.75
2024-03-17T09:51:55.354Z,30.53
2024-03-17T09:52:55.420Z,30.41
2024-03-17T09:53:55.477Z,30.65
2024-03-17T09:54:55.564Z,30.45
2024-03-17T09:55:55.656Z,29.99
2024-03-17T09:56:55.739Z,28.28
2024-03-17T09:57:55.824Z,27.85
2024-03-17T09:58:55.903Z,27.83
2024-03-17T09:59:56.013Z,26.84
2024-03-17T10:00:56.050Z,26.80
2024-03-17T10:01:56.155Z,25.76
2024-03-17T10:02:56.207Z,25.40
2024-03-17T10:03:56.298Z,25.22
2024-03-17T10:04:56.388Z,24.31
2024-03-17T10:05:56.483Z,23.10
2024-03-17T10:06:56.532Z,22.75
2024-03-17T10:07:56.625Z,22.97
2024-03-17T10:08:56.726Z,22.39
2024-03-17T10:09:56.769Z,22.79
2024-03-17T10:10:56.872Z,22.61
2024-03-17T10:11:56.941Z,22.91
2024-03-17T10:12:57.012Z,23.06
2024-03-17T10:13:57.104Z,22.33
2024-03-17T10:14:57.244Z,22.11
2024-03-17T10:15:57.268Z,21.86
2024-03-17T10:16:57.321Z,21.91
2024-03-17T10:17:57.501Z,22.05
2024-03-17T10:18:57.505Z,21.91
2024-03-17T10:20:00.430Z,21.87
2024-03-17T10:20:57.666Z,21.96
2024-03-17T10:21:57.715Z,21.34
2024-03-17T10:22:57.795Z,21.86
2024-03-17T10:23:57.888Z,22.05
2024-03-17T10:24:57.982Z,22.03
2024-03-17T10:25:58.077Z,21.43
2024-03-17T10:26:58.145Z,21.59
2024-03-17T10:27:58.257Z,21.23
2024-03-17T10:28:58.298Z,20.89
2024-03-17T10:29:58.405Z,20.83
2024-03-17T10:30:58.467Z,20.55
2024-03-17T10:31:58.568Z,20.07
2024-03-17T10:32:58.651Z,20.10
2024-03-17T10:34:06.434Z,19.90
2024-03-17T10:34:58.842Z,20.01
2024-03-17T10:35:58.915Z,19.89
2024-03-17T10:36:58.980Z,19.79
2024-03-17T10:37:59.070Z,19.81
2024-03-17T10:38:59.153Z,20.03
2024-03-17T10:39:59.255Z,20.51
2024-03-17T10:40:59.313Z,20.46
2024-03-17T10:41:59.404Z,19.95
2024-03-17T10:42:59.449Z,19.68
2024-03-17T10:44:01.114Z,20.03
2024-03-17T10:44:59.614Z,20.36
2024-03-17T10:45:59.739Z,20.76
2024-03-17T10:46:59.803Z,20.82
2024-03-17T10:47:59.874Z,21.22
2024-03-17T10:48:59.961Z,21.69
2024-03-17T10:50:02.379Z,22.08
2024-03-17T10:51:00.153Z,22.24
2024-03-17T10:52:00.247Z,22.79
2024-03-17T10:53:00.347Z,23.42
2024-03-17T10:54:00.426Z,23.99
2024-03-17T10:55:00.475Z,24.55
2024-03-17T10:56:03.610Z,24.96
2024-03-17T10:57:00.614Z,25.39
2024-03-17T10:58:00.766Z,25.69
2024-03-17T10:59:00.746Z,26.01
2024-03-17T11:00:00.854Z,26.31
2024-03-17T11:01:00.927Z,26.51
2024-03-17T11:02:01.026Z,26.85
2024-03-17T11:03:01.105Z,27.15
2024-03-17T11:04:01.214Z,27.46
2024-03-17T11:05:01.279Z,27.69
2024-03-17T11:06:01.400Z,27.85
2024-03-17T11:07:01.428Z,28.05
2024-03-17T11:08:01.560Z,28.37
2024-03-17T11:09:01.666Z,28.64
2024-03-17T11:10:01.691Z,28.98
2024-03-17T11:11:01.787Z,29.41
2024-03-17T11:12:01.884Z,29.89
2024-03-17T11:13:01.960Z,30.22
2024-03-17T11:14:02.056Z,30.47
2024-03-17T11:15:02.146Z,30.74
2024-03-17T11:16:02.269Z,31.05
2024-03-17T11:17:02.334Z,31.34
2024-03-17T11:18:02.415Z,31.59
2024-03-17T11:19:02.489Z,31.67
2024-03-17T11:20:02.608Z,31.81
2024-03-17T11:21:02.661Z,32.05
2024-03-17T11:22:02.749Z,32.27
2024-03-17T11:23:02.840Z,32.47
2024-03-17T11:24:02.934Z,32.57
2024-03-17T11:25:03.032Z,32.62
2024-03-17T11:26:03.093Z,32.70
2024-03-17T11:27:03.162Z,32.80
2024-03-17T11:28:03.259Z,32.94
2024-03-17T11:29:03.326Z,33.10
2024-03-17T11:30:03.411Z,33.23
2024-03-17T11:31:03.495Z,33.39
2024-03-17T11:32:03.594Z,33.43
2024-03-17T11:33:03.668Z,33.53
2024-03-17T11:34:03.757Z,33.62
2024-03-17T11:35:03.841Z,33.83
2024-03-17T11:36:03.928Z,34.07
2024-03-17T11:37:04.005Z,34.29
2024-03-17T11:38:04.114Z,34.45
2024-03-17T11:39:04.177Z,34.52
2024-03-17T11:40:04.275Z,34.61
2024-03-17T11:41:04.370Z,34.81
2024-03-17T11:42:04.467Z,34.97
2024-03-17T11:43:04.518Z,35.10
2024-03-17T11:44:04.623Z,35.27
2024-03-17T11:45:04.664Z,35.47
2024-03-17T11:46:04.762Z,35.70
2024-03-17T11:47:09.177Z,35.83
2024-03-17T11:48:04.935Z,35.93
2024-03-17T11:49:05.000Z,36.05
2024-03-17T11:50:05.067Z,36.16
2024-03-17T11:51:05.119Z,36.19
2024-03-17T11:52:05.224Z,36.25
2024-03-17T11:53:05.299Z,36.25
2024-03-17T11:54:05.411Z,36.32
2024-03-17T11:55:05.495Z,36.26
2024-03-17T11:56:05.575Z,36.25
2024-03-17T11:57:05.641Z,36.29
2024-03-17T11:58:05.735Z,36.42
2024-03-17T11:59:05.825Z,36.54
2024-03-17T12:00:05.890Z,36.73
2024-03-17T12:01:05.983Z,36.81
2024-03-17T12:02:06.076Z,36.92
2024-03-17T12:03:06.171Z,37.05
2024-03-17T12:04:06.267Z,37.13
2024-03-17T12:05:06.362Z,37.08
2024-03-17T12:06:06.512Z,37.11
2024-03-17T12:07:06.511Z,37.10
2024-03-17T12:08:06.603Z,37.04
2024-03-17T12:09:06.717Z,36.97
2024-03-17T12:10:06.773Z,36.96
2024-03-17T12:11:06.849Z,36.93
2024-03-17T12:12:06.941Z,36.92
2024-03-17T12:13:06.995Z,36.96
2024-03-17T12:14:08.252Z,37.04
2024-03-17T12:15:07.179Z,37.08
2024-03-17T12:16:07.256Z,37.13
2024-03-17T12:17:07.347Z,37.21
2024-03-17T12:18:07.445Z,37.29
2024-03-17T12:19:07.528Z,37.24
2024-03-17T12:20:10.212Z,37.19
2024-03-17T12:21:07.720Z,37.21
2024-03-17T12:22:07.763Z,37.21
2024-03-17T12:23:07.864Z,37.19
2024-03-17T12:24:07.947Z,37.22
2024-03-17T12:25:08.040Z,37.33
2024-03-17T12:26:08.138Z,37.40
2024-03-17T12:27:08.228Z,37.40
2024-03-17T12:28:08.303Z,37.37
2024-03-17T12:29:08.392Z,37.36
2024-03-17T12:30:08.487Z,37.46
2024-03-17T12:31:08.580Z,37.51
2024-03-17T12:32:08.675Z,37.60
2024-03-17T12:33:08.763Z,37.73
2024-03-17T12:34:08.862Z,37.83
2024-03-17T12:35:08.933Z,37.90
2024-03-17T12:36:09.023Z,37.98
2024-03-17T12:37:09.110Z,37.99
2024-03-17T12:38:09.185Z,37.82
2024-03-17T12:39:09.268Z,37.83
2024-03-17T12:40:09.371Z,37.76
2024-03-17T12:41:09.448Z,37.72
2024-03-17T12:42:09.561Z,37.63
2024-03-17T12:43:09.617Z,37.54
2024-03-17T12:44:11.768Z,37.35
2024-03-17T12:45:09.767Z,37.25
2024-03-17T12:46:09.826Z,37.22
2024-03-17T12:47:09.918Z,37.22
2024-03-17T12:48:10.018Z,37.02
2024-03-17T12:49:10.078Z,36.87
2024-03-17T12:50:11.727Z,36.57
2024-03-17T12:51:10.274Z,36.22
2024-03-17T12:52:10.336Z,36.10
2024-03-17T12:53:10.386Z,36.08